Time;durP1;ratioP1;P1;durP2;ratioP2;P2;SDS_P1;SDS_P2;PMS_P1;PMS_P2;Temp;Humidity;BMP_temperature;BMP_pressure;BME280_temperature;BME280_humidity;BME280_pressure;Samples;Min_cycle;Max_cycle;Signal;HPM_P1;HPM_P2
2023/08/12 00:00:38;;;;;;;5.08;3.00;;;;;;;20.20;64.99;100339.69;1747913;82;21059;-60
2023/08/12 00:03:08;;;;;;;6.92;3.47;;;;;;;20.20;65.02;100339.69;1748060;82;21098;-60
2023/08/12 00:05:36;;;;;;;4.42;2.83;;;;;;;20.19;65.03;100347.75;1748037;82;21478;-62
2023/08/12 00:08:06;;;;;;;5.15;3.00;;;;;;;20.17;65.07;100343.00;1748009;82;21055;-60
2023/08/12 00:10:34;;;;;;;5.05;2.83;;;;;;;20.14;65.08;100339.31;1747989;82;21086;-62
2023/08/12 00:13:04;;;;;;;3.35;2.55;;;;;;;20.14;65.03;100342.09;1748062;82;21581;-62
2023/08/12 00:15:32;;;;;;;5.42;3.05;;;;;;;20.12;65.09;100338.19;1747988;82;21074;-60
2023/08/12 00:18:04;;;;;;;3.17;2.55;;;;;;;20.10;65.10;100334.83;1747758;82;21512;-61
2023/08/12 00:20:31;;;;;;;3.65;2.83;;;;;;;20.07;65.11;100342.86;1747888;82;21063;-61
2023/08/12 00:22:59;;;;;;;5.30;3.05;;;;;;;20.01;65.12;100341.96;1748003;82;21046;-60
2023/08/12 00:25:28;;;;;;;3.20;2.80;;;;;;;19.93;65.21;100343.27;1748045;82;20999;-62
2023/08/12 00:27:56;;;;;;;5.70;3.17;;;;;;;19.84;65.28;100345.38;1747853;82;21647;-61
2023/08/12 00:30:25;;;;;;;4.42;2.75;;;;;;;19.73;65.48;100341.64;1748052;82;21473;-63
2023/08/12 00:32:54;;;;;;;4.20;2.90;;;;;;;19.67;65.54;100344.07;1748044;82;21067;-61
2023/08/12 00:35:23;;;;;;;6.10;2.80;;;;;;;19.64;65.68;100344.59;1747885;82;21015;-61
2023/08/12 00:37:52;;;;;;;3.95;3.08;;;;;;;19.58;65.64;100344.23;1748028;82;21043;-60
2023/08/12 00:40:21;;;;;;;5.50;3.33;;;;;;;19.51;65.71;100333.27;1748144;82;21027;-60
2023/08/12 00:42:50;;;;;;;5.10;2.83;;;;;;;19.45;65.76;100339.83;1747838;82;21274;-62
2023/08/12 00:45:19;;;;;;;4.05;3.37;;;;;;;19.40;65.86;100341.70;1747919;82;21015;-60
2023/08/12 00:47:48;;;;;;;4.80;3.20;;;;;;;19.36;65.91;100331.66;1747897;82;20995;-60
2023/08/12 00:50:17;;;;;;;5.75;3.15;;;;;;;19.35;65.92;100341.09;1747972;82;21139;-62
2023/08/12 00:52:45;;;;;;;5.10;3.10;;;;;;;19.33;65.90;100338.56;1748102;82;21003;-60
2023/08/12 00:55:14;;;;;;;6.15;3.10;;;;;;;19.30;65.90;100346.02;1747917;82;21007;-61
2023/08/12 00:57:44;;;;;;;5.28;3.20;;;;;;;19.26;66.02;100337.91;1747833;82;21094;-60
2023/08/12 01:00:14;;;;;;;4.75;3.40;;;;;;;19.23;66.02;100342.59;1725243;82;21066;-61
2023/08/12 01:02:47;;;;;;;5.30;3.12;;;;;;;19.16;66.21;100341.94;1753489;82;21194;-60
2023/08/12 01:05:16;;;;;;;6.15;3.42;;;;;;;19.15;66.24;100340.80;1753620;82;21051;-60
2023/08/12 01:07:46;;;;;;;4.25;3.20;;;;;;;19.09;66.32;100332.94;1753626;82;21162;-61
2023/08/12 01:10:16;;;;;;;4.08;3.27;;;;;;;19.07;66.45;100338.46;1753642;82;21086;-61
2023/08/12 01:12:53;;;;;;;4.37;2.95;;;;;;;19.06;66.47;100342.33;1753465;82;21502;-61
2023/08/12 01:15:23;;;;;;;5.00;3.12;;;;;;;19.04;66.47;100341.20;1753508;82;21149;-62
2023/08/12 01:17:54;;;;;;;5.72;3.27;;;;;;;18.99;66.49;100346.67;1753676;82;21459;-62
2023/08/12 01:20:25;;;;;;;5.60;3.20;;;;;;;18.95;66.57;100349.13;1753536;82;21015;-62
2023/08/12 01:23:14;;;;;;;6.12;3.50;;;;;;;18.95;66.60;100342.73;1753484;82;21038;-61
2023/08/12 01:25:42;;;;;;;3.77;2.98;;;;;;;18.94;66.53;100339.66;1753610;82;21039;-61
2023/08/12 01:28:11;;;;;;;5.03;3.20;;;;;;;18.92;66.52;100344.08;1753465;82;21522;-60
2023/08/12 01:30:49;;;;;;;4.83;3.20;;;;;;;18.90;66.46;100342.65;1753678;82;21552;-63
2023/08/12 01:33:26;;;;;;;4.17;3.20;;;;;;;18.88;66.50;100342.06;1744630;81;21066;-60
2023/08/12 01:35:55;;;;;;;;;;;;;;;18.87;66.55;100338.45;1756176;82;21106;-61
2023/08/12 01:38:24;;;;;;;4.47;3.12;;;;;;;18.88;66.53;100339.28;1753444;82;20185;-61
2023/08/12 01:40:52;;;;;;;5.42;3.50;;;;;;;18.88;66.44;100340.67;1753417;82;21059;-61
2023/08/12 01:43:21;;;;;;;4.05;3.27;;;;;;;18.86;66.34;100338.16;1753584;82;21090;-62
2023/08/12 01:45:50;;;;;;;5.30;3.22;;;;;;;18.84;66.32;100336.69;1748745;82;21540;-62
2023/08/12 01:48:22;;;;;;;5.33;3.55;;;;;;;18.82;66.23;100331.39;1753614;82;21063;-62
2023/08/12 01:50:49;;;;;;;6.42;3.52;;;;;;;18.80;66.15;100328.58;1753383;82;21027;-63
2023/08/12 01:53:17;;;;;;;5.25;3.72;;;;;;;18.79;66.18;100328.28;1753462;82;21126;-61
2023/08/12 01:55:46;;;;;;;5.47;3.55;;;;;;;18.76;66.20;100332.41;1753395;82;21463;-61
2023/08/12 01:58:14;;;;;;;5.65;3.70;;;;;;;18.69;66.34;100327.03;1753584;82;21525;-61
2023/08/12 02:00:43;;;;;;;6.70;3.83;;;;;;;18.66;66.51;100325.30;1748536;82;21043;-61
2023/08/12 02:03:11;;;;;;;5.87;3.70;;;;;;;18.62;66.63;100323.58;1747939;82;21086;-60
2023/08/12 02:05:41;;;;;;;6.87;3.62;;;;;;;18.61;66.79;100330.23;1747863;82;21133;-61
2023/08/12 02:08:10;;;;;;;6.40;3.87;;;;;;;18.55;66.93;100330.36;1747777;82;21047;-61
2023/08/12 02:10:39;;;;;;;8.63;3.72;;;;;;;18.47;67.13;100328.84;1747875;82;21027;-61
2023/08/12 02:13:08;;;;;;;7.45;3.70;;;;;;;18.44;67.43;100334.90;1747836;82;21557;-61
2023/08/12 02:15:36;;;;;;;9.48;3.80;;;;;;;18.40;67.67;100335.10;1747950;82;21121;-61
2023/08/12 02:18:06;;;;;;;4.72;3.58;;;;;;;18.36;67.97;100339.47;1747818;82;21105;-60
2023/08/12 02:20:35;;;;;;;7.20;3.62;;;;;;;18.34;68.14;100341.11;1747932;82;21497;-60
2023/08/12 02:23:04;;;;;;;4.30;3.33;;;;;;;18.36;68.26;100340.86;1747934;82;21015;-62
2023/08/12 02:25:32;;;;;;;5.22;3.77;;;;;;;18.37;68.34;100347.55;1747852;82;21078;-61
2023/08/12 02:28:01;;;;;;;4.22;3.52;;;;;;;18.36;68.39;100339.47;1747844;82;21423;-61
2023/08/12 02:30:31;;;;;;;7.58;3.90;;;;;;;18.35;68.50;100339.17;1748101;82;21031;-62
2023/08/12 02:33:00;;;;;;;5.45;3.67;;;;;;;18.32;68.64;100341.91;1748042;82;21013;-61
2023/08/12 02:35:28;;;;;;;6.45;3.52;;;;;;;18.33;68.75;100337.20;1748111;82;21027;-62
2023/08/12 02:37:57;;;;;;;9.45;3.92;;;;;;;18.29;68.86;100346.56;1748193;82;21030;-61
2023/08/12 02:40:26;;;;;;;4.90;3.75;;;;;;;18.27;69.03;100339.59;1748177;82;21040;-62
2023/08/12 02:42:54;;;;;;;6.87;3.62;;;;;;;18.26;69.17;100340.67;1748099;82;21015;-61
2023/08/12 02:45:23;;;;;;;5.65;3.90;;;;;;;18.23;69.32;100346.17;1748158;82;21007;-61
2023/08/12 02:47:52;;;;;;;8.63;3.95;;;;;;;18.22;69.42;100346.42;1747840;82;21066;-61
2023/08/12 02:50:21;;;;;;;5.65;3.75;;;;;;;18.25;69.45;100350.09;1747963;82;21063;-61
2023/08/12 02:52:50;;;;;;;8.95;4.55;;;;;;;18.23;69.46;100349.50;1747908;82;21102;-61
2023/08/12 02:55:19;;;;;;;8.60;4.08;;;;;;;18.20;69.66;100347.19;1747967;82;21035;-61
2023/08/12 02:57:47;;;;;;;6.92;3.77;;;;;;;18.20;69.74;100350.80;1748091;82;21031;-62
2023/08/12 03:00:17;;;;;;;6.00;4.00;;;;;;;18.23;69.75;100351.73;1747960;82;21495;-61
2023/08/12 03:02:47;;;;;;;8.05;3.95;;;;;;;18.24;69.82;100349.80;1747930;82;21047;-62
2023/08/12 03:05:16;;;;;;;5.75;4.08;;;;;;;18.24;69.88;100347.02;1747951;82;21036;-61
2023/08/12 03:07:45;;;;;;;6.67;4.40;;;;;;;18.23;69.96;100350.88;1748075;82;21046;-59
2023/08/12 03:10:14;;;;;;;7.45;3.90;;;;;;;18.22;70.08;100349.20;1748125;82;21038;-60
2023/08/12 03:12:43;;;;;;;5.65;3.80;;;;;;;18.22;70.13;100350.05;1748152;82;21086;-60
2023/08/12 03:15:12;;;;;;;5.92;4.00;;;;;;;18.19;70.19;100347.73;1748182;82;21043;-61
2023/08/12 03:17:41;;;;;;;6.97;4.05;;;;;;;18.19;70.28;100346.89;1747952;82;21812;-60
2023/08/12 03:20:11;;;;;;;6.85;4.30;;;;;;;18.18;70.39;100352.14;1748105;82;21116;-61
2023/08/12 03:22:40;;;;;;;7.03;4.12;;;;;;;18.14;70.54;100346.80;1748098;82;21051;-61
2023/08/12 03:25:09;;;;;;;10.20;4.35;;;;;;;18.08;70.77;100343.09;1747845;82;20999;-60
2023/08/12 03:27:39;;;;;;;7.92;4.92;;;;;;;18.08;70.95;100345.02;1747891;82;21038;-62
2023/08/12 03:30:11;;;;;;;8.05;4.80;;;;;;;18.08;71.04;100356.95;1748096;82;21035;-61
2023/08/12 03:32:40;;;;;;;5.22;4.47;;;;;;;18.01;71.23;100350.17;1748056;82;21035;-61
2023/08/12 03:35:09;;;;;;;7.37;4.62;;;;;;;17.98;71.40;100345.13;1747935;82;21051;-61
2023/08/12 03:37:38;;;;;;;6.45;4.53;;;;;;;17.99;71.59;100351.52;1747874;82;21377;-61
2023/08/12 03:40:09;;;;;;;6.55;4.55;;;;;;;17.97;71.71;100351.76;1748001;82;21050;-62
2023/08/12 03:42:38;;;;;;;5.67;4.45;;;;;;;17.98;71.82;100350.67;1747900;82;21023;-61
2023/08/12 03:45:09;;;;;;;6.87;4.60;;;;;;;18.00;71.88;100357.35;1747978;82;21090;-60
2023/08/12 03:47:37;;;;;;;8.90;4.55;;;;;;;18.04;71.91;100355.22;1748103;82;21066;-61
2023/08/12 03:50:08;;;;;;;7.87;4.47;;;;;;;18.06;71.90;100350.81;1748048;82;21047;-61
2023/08/12 03:52:36;;;;;;;6.55;4.85;;;;;;;18.09;71.94;100356.41;1747861;82;21050;-60
2023/08/12 03:55:07;;;;;;;6.62;4.45;;;;;;;18.09;71.89;100357.80;1748033;82;21072;-61
2023/08/12 03:57:35;;;;;;;6.80;4.85;;;;;;;18.11;71.98;100355.61;1748178;82;21007;-61
2023/08/12 04:00:08;;;;;;;5.85;4.55;;;;;;;18.13;72.01;100358.98;1748002;82;21015;-60
2023/08/12 04:02:39;;;;;;;8.45;4.67;;;;;;;18.17;71.98;100362.94;1748032;82;21019;-60
2023/08/12 04:05:09;;;;;;;6.45;5.05;;;;;;;18.21;71.93;100360.00;1747832;82;21090;-61
2023/08/12 04:07:37;;;;;;;8.88;5.30;;;;;;;18.21;71.76;100351.67;1748233;82;21443;-61
2023/08/12 04:10:07;;;;;;;10.20;5.00;;;;;;;18.23;71.75;100359.20;1748000;82;21034;-62
2023/08/12 04:12:36;;;;;;;7.78;4.95;;;;;;;18.26;71.76;100359.55;1748128;82;21477;-62
2023/08/12 04:15:07;;;;;;;11.05;4.72;;;;;;;18.27;71.73;100359.00;1747847;82;21070;-62
2023/08/12 04:17:35;;;;;;;6.97;4.80;;;;;;;18.27;71.71;100352.91;1747792;82;21062;-61
2023/08/12 04:20:07;;;;;;;6.83;4.72;;;;;;;18.25;71.64;100355.64;1747971;82;21043;-61
2023/08/12 04:22:36;;;;;;;7.30;4.85;;;;;;;18.24;71.71;100352.56;1748334;82;21042;-61
2023/08/12 04:25:07;;;;;;;6.08;4.85;;;;;;;18.27;71.76;100355.69;1748058;82;21019;-61
2023/08/12 04:27:36;;;;;;;7.22;4.97;;;;;;;18.33;71.71;100360.78;1747845;82;21047;-60
2023/08/12 04:30:07;;;;;;;7.78;5.30;;;;;;;18.40;71.58;100357.84;1747824;82;21027;-61
2023/08/12 04:32:36;;;;;;;8.33;5.03;;;;;;;18.43;71.40;100358.19;1747885;82;21023;-61
2023/08/12 04:35:07;;;;;;;9.65;5.15;;;;;;;18.43;71.36;100351.80;1729923;82;21114;-61
2023/08/12 04:37:38;;;;;;;9.13;5.67;;;;;;;18.46;71.29;100349.91;1747836;82;21031;-61
2023/08/12 04:40:09;;;;;;;8.10;5.22;;;;;;;18.48;71.19;100354.11;1748122;82;21063;-61
2023/08/12 04:42:37;;;;;;;13.65;4.85;;;;;;;18.49;71.08;100346.08;1747922;82;21055;-61
2023/08/12 04:45:08;;;;;;;10.35;5.05;;;;;;;18.50;71.10;100350.54;1748199;82;21039;-61
2023/08/12 04:47:37;;;;;;;7.00;4.85;;;;;;;18.52;71.14;100351.12;1747903;82;21090;-62
2023/08/12 04:50:06;;;;;;;7.05;5.10;;;;;;;18.55;71.07;100353.95;1748154;82;21023;-61
2023/08/12 04:52:35;;;;;;;6.97;5.28;;;;;;;18.54;71.10;100346.17;1748036;82;21035;-60
2023/08/12 04:55:06;;;;;;;11.48;5.30;;;;;;;18.55;71.13;100343.69;1748036;82;21027;-61
2023/08/12 04:57:34;;;;;;;11.65;5.00;;;;;;;18.61;71.06;100350.16;1747818;82;21114;-61
2023/08/12 05:00:09;;;;;;;7.72;4.83;;;;;;;18.67;71.00;100346.41;1747164;82;21542;-61
2023/08/12 05:02:38;;;;;;;5.10;4.40;;;;;;;18.76;70.95;100345.45;1745942;82;21070;-61
2023/08/12 05:05:08;;;;;;;6.80;4.55;;;;;;;18.84;70.80;100344.47;1746015;82;20999;-61
2023/08/12 05:07:37;;;;;;;6.00;4.87;;;;;;;18.95;70.73;100346.34;1746172;82;21153;-61
2023/08/12 05:10:09;;;;;;;7.00;4.40;;;;;;;19.06;70.33;100354.28;1746025;82;21003;-62
2023/08/12 05:12:38;;;;;;;10.75;5.55;;;;;;;19.16;69.82;100353.59;1745989;82;21019;-61
2023/08/12 05:15:09;;;;;;;8.55;5.33;;;;;;;19.26;69.21;100353.74;1745977;82;21505;-61
2023/08/12 05:17:37;;;;;;;7.35;4.90;;;;;;;19.31;68.79;100353.27;1745944;82;21039;-61
2023/08/12 05:20:08;;;;;;;5.75;4.65;;;;;;;19.35;68.48;100345.80;1742735;82;21475;-62
2023/08/12 05:22:37;;;;;;;12.30;4.85;;;;;;;19.35;68.23;100345.80;1746021;82;21027;-62
2023/08/12 05:25:08;;;;;;;6.92;4.60;;;;;;;19.32;68.07;100341.05;1745997;82;21079;-61
2023/08/12 05:27:36;;;;;;;7.20;4.78;;;;;;;19.31;68.06;100344.93;1746182;82;21055;-61
2023/08/12 05:30:07;;;;;;;7.47;5.00;;;;;;;19.34;68.13;100349.13;1746057;82;20991;-61
2023/08/12 05:32:35;;;;;;;9.00;5.00;;;;;;;19.35;67.95;100347.19;1746204;82;21027;-62
2023/08/12 05:35:04;;;;;;;6.03;4.72;;;;;;;19.36;67.98;100359.44;1746036;82;21031;-62
2023/08/12 05:37:33;;;;;;;10.72;4.67;;;;;;;19.41;67.83;100364.23;1745969;82;21455;-60
2023/08/12 05:40:07;;;;;;;9.13;4.90;;;;;;;19.44;67.68;100359.55;1746192;82;21060;-62
2023/08/12 05:42:33;;;;;;;7.05;5.05;;;;;;;19.45;67.57;100362.61;1746151;82;21063;-61
2023/08/12 05:45:03;;;;;;;11.35;5.85;;;;;;;19.46;67.55;100368.47;1745927;82;21495;-61
2023/08/12 05:47:34;;;;;;;8.25;4.87;;;;;;;19.49;67.55;100358.22;1746220;82;21027;-61
2023/08/12 05:50:03;;;;;;;9.73;5.42;;;;;;;19.54;67.53;100360.58;1745832;82;21086;-61
2023/08/12 05:52:31;;;;;;;7.12;5.37;;;;;;;19.57;67.31;100363.39;1745916;82;21078;-61
2023/08/12 05:55:01;;;;;;;5.95;4.65;;;;;;;19.56;67.14;100365.88;1746139;82;21063;-62
2023/08/12 05:57:30;;;;;;;6.92;5.05;;;;;;;19.53;67.13;100359.45;1746106;82;21108;-61
2023/08/12 05:59:58;;;;;;;7.87;5.10;;;;;;;19.50;67.17;100361.30;1746198;82;21072;-61
2023/08/12 06:02:27;;;;;;;8.75;5.00;;;;;;;19.51;67.22;100365.23;1747824;82;21026;-60
2023/08/12 06:04:56;;;;;;;7.03;5.00;;;;;;;19.53;67.30;100364.46;1748104;82;21070;-62
2023/08/12 06:07:26;;;;;;;8.78;5.67;;;;;;;19.56;67.22;100362.56;1748056;82;21075;-61
2023/08/12 06:09:55;;;;;;;6.47;4.83;;;;;;;19.57;67.25;100364.23;1747956;82;21078;-61
2023/08/12 06:12:23;;;;;;;6.83;5.08;;;;;;;19.57;67.04;100363.39;1748020;82;21015;-61
2023/08/12 06:14:52;;;;;;;8.40;5.50;;;;;;;19.53;67.07;100362.23;1747769;82;22019;-61
2023/08/12 06:17:21;;;;;;;5.97;4.67;;;;;;;19.53;67.36;100361.69;1748065;82;21035;-61
2023/08/12 06:19:50;;;;;;;6.97;4.65;;;;;;;19.54;67.14;100356.97;1748112;82;21030;-61
2023/08/12 06:22:19;;;;;;;6.95;5.17;;;;;;;19.53;67.19;100355.28;1748077;82;21018;-62
2023/08/12 06:24:47;;;;;;;7.10;4.80;;;;;;;19.55;67.14;100355.86;1748044;82;21027;-61
2023/08/12 06:27:16;;;;;;;8.03;5.00;;;;;;;19.55;67.09;100355.86;1748001;82;21151;-61
2023/08/12 06:29:46;;;;;;;9.43;5.17;;;;;;;19.52;67.15;100347.50;1747876;82;21439;-62
2023/08/12 06:32:15;;;;;;;8.78;5.17;;;;;;;19.56;67.20;100347.82;1747845;82;21035;-61
2023/08/12 06:34:44;;;;;;;6.33;4.40;;;;;;;19.68;67.19;100347.14;1748123;82;21059;-61
2023/08/12 06:37:13;;;;;;;7.72;4.60;;;;;;;19.98;66.54;100347.21;1747658;82;21039;-62
2023/08/12 06:39:41;;;;;;;6.60;4.85;;;;;;;20.36;66.08;100349.87;1747966;82;21066;-61
2023/08/12 06:42:10;;;;;;;7.65;4.72;;;;;;;20.85;64.82;100348.41;1748095;82;20995;-60
2023/08/12 06:44:40;;;;;;;10.32;4.80;;;;;;;21.35;63.53;100340.12;1729338;82;21479;-61
2023/08/12 06:47:09;;;;;;;7.47;4.53;;;;;;;21.80;61.86;100343.15;1747998;82;21063;-60
2023/08/12 06:49:37;;;;;;;11.18;5.05;;;;;;;22.18;59.91;100337.46;1747941;82;20999;-61
2023/08/12 06:52:06;;;;;;;7.33;5.10;;;;;;;22.54;59.00;100343.93;1747784;82;21067;-61
2023/08/12 06:54:35;;;;;;;7.42;4.35;;;;;;;22.91;57.85;100337.56;1747942;82;21483;-62
2023/08/12 06:57:05;;;;;;;6.95;4.45;;;;;;;23.34;56.84;100331.88;1747700;82;21483;-61
2023/08/12 06:59:34;;;;;;;9.43;4.50;;;;;;;23.79;55.53;100339.89;1747862;82;21062;-61
2023/08/12 07:02:03;;;;;;;6.75;4.42;;;;;;;24.03;54.53;100335.84;1722853;82;21579;-62
2023/08/12 07:04:31;;;;;;;7.37;4.40;;;;;;;24.12;53.15;100337.52;1718054;83;21015;-62
2023/08/12 07:07:01;;;;;;;5.17;4.20;;;;;;;23.96;53.31;100339.53;1717881;83;21046;-61
2023/08/12 07:09:29;;;;;;;6.65;4.03;;;;;;;23.87;53.52;100337.05;1717919;83;21010;-62
2023/08/12 07:11:58;;;;;;;8.05;4.30;;;;;;;23.84;53.88;100337.62;1717986;83;20991;-62
2023/08/12 07:14:28;;;;;;;10.28;4.87;;;;;;;23.78;53.55;100339.61;1717964;83;21018;-63
2023/08/12 07:16:57;;;;;;;11.20;6.00;;;;;;;23.53;53.89;100333.53;1717729;83;21462;-61
2023/08/12 07:19:26;;;;;;;5.62;4.28;;;;;;;23.34;54.36;100333.84;1717887;83;21043;-63
2023/08/12 07:21:54;;;;;;;6.03;4.28;;;;;;;23.16;54.78;100342.83;1718036;83;21508;-61
2023/08/12 07:24:23;;;;;;;6.70;4.30;;;;;;;22.99;55.19;100348.17;1717990;83;21018;-61
2023/08/12 07:26:52;;;;;;;8.68;4.70;;;;;;;22.83;55.59;100345.67;1718074;83;21069;-61
2023/08/12 07:29:21;;;;;;;7.30;4.20;;;;;;;22.68;56.16;100349.24;1717877;83;21062;-62
2023/08/12 07:31:50;;;;;;;6.45;4.45;;;;;;;22.55;56.67;100359.01;1718005;83;21110;-60
2023/08/12 07:34:18;;;;;;;6.75;4.40;;;;;;;22.45;56.94;100355.65;1718031;83;20983;-61
2023/08/12 07:36:48;;;;;;;6.85;4.67;;;;;;;22.38;57.31;100359.27;1718197;83;21056;-63
2023/08/12 07:39:18;;;;;;;8.75;5.08;;;;;;;22.37;57.42;100357.59;1717947;83;21069;-62
2023/08/12 07:41:46;;;;;;;6.22;4.22;;;;;;;22.36;57.34;100355.92;1717964;83;21034;-62
2023/08/12 07:44:16;;;;;;;8.38;4.20;;;;;;;22.40;57.47;100357.04;1718115;83;21069;-61
2023/08/12 07:46:45;;;;;;;11.80;4.62;;;;;;;22.61;57.22;100352.87;1718339;83;21057;-61
2023/08/12 07:49:15;;;;;;;6.17;3.83;;;;;;;22.91;56.87;100350.13;1717920;83;21077;-63
2023/08/12 07:51:44;;;;;;;5.72;4.08;;;;;;;23.34;55.76;100345.86;1718005;83;21022;-62
2023/08/12 07:54:14;;;;;;;8.55;3.87;;;;;;;23.87;54.57;100342.09;1717977;83;21054;-60
2023/08/12 07:56:42;;;;;;;8.15;4.00;;;;;;;24.32;52.45;100331.81;1717805;83;21073;-63
2023/08/12 07:59:11;;;;;;;15.05;4.22;;;;;;;24.63;51.85;100327.64;1717504;82;21064;-63
2023/08/12 08:01:39;;;;;;;8.43;4.28;;;;;;;24.96;51.31;100336.35;1733520;82;21471;-65
2023/08/12 08:04:08;;;;;;;6.25;3.60;;;;;;;25.35;49.79;100334.86;1737706;81;21097;-66
2023/08/12 08:06:37;;;;;;;4.67;3.80;;;;;;;25.66;49.11;100344.38;1737454;82;21108;-67
2023/08/12 08:09:06;;;;;;;6.33;3.80;;;;;;;25.88;48.10;100334.27;1744529;82;21132;-66
2023/08/12 08:11:35;;;;;;;8.53;4.10;;;;;;;25.94;48.01;100338.41;1744381;82;21080;-67
2023/08/12 08:14:04;;;;;;;8.90;4.15;;;;;;;25.91;47.76;100336.47;1744347;82;21068;-67
2023/08/12 08:16:33;;;;;;;4.87;3.50;;;;;;;25.84;47.54;100347.80;1756634;81;21458;-67
2023/08/12 08:19:02;;;;;;;4.90;3.70;;;;;;;25.67;47.39;100340.44;1758066;81;21022;-68
2023/08/12 08:21:31;;;;;;;9.00;3.55;;;;;;;25.48;47.78;100343.16;1758072;81;21049;-67
2023/08/12 08:24:00;;;;;;;4.87;3.30;;;;;;;25.38;47.54;100332.89;1758198;81;20990;-68
2023/08/12 08:26:28;;;;;;;5.35;3.40;;;;;;;25.31;47.66;100337.98;1758326;81;21069;-67
2023/08/12 08:28:58;;;;;;;8.60;3.80;;;;;;;25.25;47.66;100333.56;1758195;81;21119;-66
2023/08/12 08:31:26;;;;;;;5.90;3.80;;;;;;;25.12;48.25;100338.47;1757880;81;21049;-68
2023/08/12 08:33:55;;;;;;;6.87;3.20;;;;;;;24.92;48.46;100338.91;1709289;84;21112;-67
2023/08/12 08:36:24;;;;;;;5.35;3.35;;;;;;;24.68;48.83;100337.97;1709563;84;21104;-67
2023/08/12 08:38:52;;;;;;;5.33;3.80;;;;;;;24.52;49.36;100335.86;1709489;84;21077;-67
2023/08/12 08:41:23;;;;;;;8.43;4.55;;;;;;;24.28;49.74;100339.12;1709495;84;21550;-68
2023/08/12 08:43:53;;;;;;;9.83;4.28;;;;;;;24.13;50.30;100345.62;1709509;84;21547;-69
2023/08/12 08:46:22;;;;;;;8.53;3.92;;;;;;;24.04;50.78;100338.36;1709317;84;21563;-67
2023/08/12 08:48:51;;;;;;;7.50;3.90;;;;;;;24.02;50.73;100336.97;1709518;84;21089;-68
2023/08/12 08:51:19;;;;;;;18.45;4.00;;;;;;;23.95;50.81;100332.25;1709375;84;21064;-68
2023/08/12 08:53:48;;;;;;;6.05;3.87;;;;;;;23.92;50.85;100337.86;1709390;84;21509;-67
2023/08/12 08:56:19;;;;;;;7.25;3.67;;;;;;;23.87;51.11;100343.48;1709640;84;21092;-68
2023/08/12 08:58:50;;;;;;;5.30;3.67;;;;;;;23.82;51.25;100339.31;1709394;84;21065;-61
2023/08/12 09:01:22;;;;;;;8.65;3.67;;;;;;;23.83;51.64;100344.35;1710775;82;21047;-65
2023/08/12 09:03:57;;;;;;;6.80;4.42;;;;;;;23.92;51.43;100351.02;1715593;84;21073;-66
2023/08/12 09:06:22;;;;;;;5.25;3.65;;;;;;;24.04;51.22;100346.75;1724428;82;21075;-66
2023/08/12 09:08:52;;;;;;;6.60;3.65;;;;;;;24.14;50.84;100338.89;1745847;82;21061;-67
2023/08/12 09:11:22;;;;;;;6.80;3.80;;;;;;;24.22;50.84;100333.25;1745467;82;21097;-66
2023/08/12 09:13:51;;;;;;;8.80;4.12;;;;;;;24.32;50.65;100341.05;1745436;82;21064;-67
2023/08/12 09:16:20;;;;;;;6.75;3.90;;;;;;;24.41;50.18;100337.06;1745692;82;21021;-62
2023/08/12 09:18:56;;;;;;;6.78;3.90;;;;;;;24.46;49.87;100340.39;1745443;82;21130;-68
2023/08/12 09:21:26;;;;;;;5.75;3.52;;;;;;;24.46;49.77;100329.19;1745517;82;21036;-63
2023/08/12 09:23:55;;;;;;;11.53;3.80;;;;;;;24.54;50.20;100327.16;1745541;82;21103;-67
2023/08/12 09:26:24;;;;;;;7.45;3.58;;;;;;;24.61;49.92;100327.66;1716918;82;21523;-63
2023/08/12 09:28:52;;;;;;;6.20;3.77;;;;;;;24.72;50.19;100327.88;1745883;82;21029;-66
2023/08/12 09:31:30;;;;;;;7.83;3.52;;;;;;;24.84;49.47;100323.30;1745596;82;21025;-65
2023/08/12 09:34:09;;;;;;;8.93;3.67;;;;;;;24.98;49.11;100321.51;1745900;82;21029;-63
2023/08/12 09:36:38;;;;;;;6.78;3.58;;;;;;;25.13;48.76;100324.72;1745512;82;21056;-64
2023/08/12 09:39:08;;;;;;;5.10;3.47;;;;;;;25.24;48.50;100322.92;1745530;82;21157;-62
2023/08/12 09:41:39;;;;;;;6.25;3.60;;;;;;;25.36;47.54;100323.94;1745445;82;21013;-65
2023/08/12 09:44:08;;;;;;;6.40;3.10;;;;;;;25.41;46.80;100323.88;1745338;82;21064;-63
2023/08/12 09:46:38;;;;;;;4.15;3.17;;;;;;;25.42;46.22;100328.36;1693414;82;21039;-63
2023/08/12 09:49:08;;;;;;;11.43;3.30;;;;;;;25.48;45.53;100315.94;1745680;82;21052;-63
2023/08/12 09:51:39;;;;;;;7.12;3.00;;;;;;;25.54;44.40;100326.53;1745698;82;21052;-64
2023/08/12 09:54:11;;;;;;;10.93;3.45;;;;;;;25.48;43.76;100330.53;1740909;82;21500;-64
2023/08/12 09:56:43;;;;;;;4.37;2.90;;;;;;;25.44;43.65;100327.49;1718226;82;21112;-65
2023/08/12 09:59:11;;;;;;;8.80;3.25;;;;;;;25.46;43.40;100323.82;1745579;82;21112;-64
2023/08/12 10:01:41;;;;;;;7.45;2.83;;;;;;;25.49;43.55;100333.05;1743172;82;21500;-64
2023/08/12 10:04:16;;;;;;;6.67;2.90;;;;;;;25.56;42.98;100322.86;1736734;82;21001;-64
2023/08/12 10:06:42;;;;;;;6.90;3.10;;;;;;;25.60;42.50;100333.76;1724135;81;21486;-64
2023/08/12 10:09:11;;;;;;;7.97;3.83;;;;;;;25.60;42.50;100342.17;1757946;81;21033;-65
2023/08/12 10:11:40;;;;;;;7.58;3.10;;;;;;;25.49;42.45;100333.05;1758093;81;21073;-65
2023/08/12 10:14:10;;;;;;;6.72;3.00;;;;;;;25.46;42.92;100344.86;1737167;81;21061;-63
2023/08/12 10:16:39;;;;;;;6.50;3.08;;;;;;;25.43;42.36;100344.63;1758187;80;21009;-63
2023/08/12 10:19:11;;;;;;;5.80;3.00;;;;;;;25.41;42.59;100337.91;1758115;81;21046;-64
2023/08/12 10:21:40;;;;;;;8.15;2.87;;;;;;;25.44;42.84;100344.33;1738008;81;21507;-64
2023/08/12 10:24:09;;;;;;;6.10;3.00;;;;;;;25.47;42.55;100333.08;1757944;81;21465;-64
2023/08/12 10:26:38;;;;;;;4.40;2.65;;;;;;;25.48;42.41;100335.58;1757904;81;21511;-64
2023/08/12 10:29:07;;;;;;;5.65;3.10;;;;;;;25.49;42.42;100332.20;1758216;81;21029;-66
2023/08/12 10:31:36;;;;;;;6.53;3.20;;;;;;;25.48;42.66;100341.19;1758236;81;21100;-64
2023/08/12 10:34:05;;;;;;;5.10;3.02;;;;;;;25.49;42.43;100334.45;1713384;81;21061;-65
2023/08/12 10:36:34;;;;;;;6.05;3.67;;;;;;;25.47;42.39;100340.09;1757999;81;21437;-64
2023/08/12 10:39:10;;;;;;;5.90;3.00;;;;;;;25.41;42.07;100339.31;1757504;81;21038;-64
2023/08/12 10:41:39;;;;;;;8.15;3.70;;;;;;;25.43;41.70;100332.83;1757998;81;21026;-66
2023/08/12 10:44:08;;;;;;;4.35;2.85;;;;;;;25.44;41.12;100335.91;1758224;81;21062;-63
2023/08/12 10:46:37;;;;;;;5.05;3.10;;;;;;;25.44;40.38;100338.72;1758013;81;21026;-64
2023/08/12 10:49:09;;;;;;;6.80;3.00;;;;;;;25.43;40.42;100337.61;1758220;81;20994;-67
2023/08/12 10:51:50;;;;;;;10.23;3.22;;;;;;;25.44;40.31;100334.51;1758010;80;21072;-67
2023/08/12 10:54:26;;;;;;;6.50;3.42;;;;;;;25.47;40.30;100332.51;1758209;81;21022;-64
2023/08/12 10:57:05;;;;;;;6.65;2.90;;;;;;;25.48;40.49;100341.76;1758630;81;21112;-66
2023/08/12 10:59:54;;;;;;;4.33;2.67;;;;;;;25.48;40.86;100333.34;1755094;81;21081;-67
2023/08/12 11:02:26;;;;;;;5.35;3.25;;;;;;;25.43;40.96;100332.83;1760190;80;21555;-65
2023/08/12 11:05:09;;;;;;;6.37;2.80;;;;;;;25.44;41.17;100328.06;1763818;81;20990;-66
2023/08/12 11:07:52;;;;;;;6.37;2.85;;;;;;;25.48;40.76;100340.36;1720378;82;21036;-67
2023/08/12 11:10:25;;;;;;;4.15;2.80;;;;;;;25.49;40.61;100341.46;1747128;82;21040;-64
2023/08/12 11:12:56;;;;;;;5.70;2.92;;;;;;;25.46;40.45;100345.44;1746918;82;21476;-69
2023/08/12 11:15:47;;;;;;;7.20;3.30;;;;;;;25.32;40.72;100350.88;1746927;82;21037;-65
2023/08/12 11:18:18;;;;;;;4.85;3.12;;;;;;;25.27;41.07;100347.56;1747036;82;21029;-67
2023/08/12 11:20:50;;;;;;;5.30;3.00;;;;;;;25.26;41.27;100343.66;1716758;82;21438;-66
2023/08/12 11:23:20;;;;;;;5.35;3.17;;;;;;;25.23;41.61;100344.25;1747155;82;21056;-66
2023/08/12 11:25:50;;;;;;;5.12;3.12;;;;;;;25.28;41.92;100348.40;1747054;81;21049;-66
2023/08/12 11:28:21;;;;;;;4.60;2.83;;;;;;;25.33;41.95;100359.56;1746934;82;21503;-69
2023/08/12 11:30:50;;;;;;;6.58;3.20;;;;;;;25.34;41.79;100360.41;1746852;82;21092;-67
2023/08/12 11:33:18;;;;;;;6.87;3.30;;;;;;;25.35;41.98;100353.66;1747040;82;21025;-66
2023/08/12 11:35:47;;;;;;;5.10;3.30;;;;;;;25.33;41.76;100359.56;1746954;82;21448;-70